Current | Forecast
Updated: 5:00 AM CEST on March 29, 2017
Observed at Plzen Line Airport, Czech Republic
Temperature 4°C
Humidity 81%
Dew Point 1°C
Wind North at 0 km/h
Pressure 1023 hPa (Steady)
Conditions Clear
Visibility -
UV N/A
Clouds
Yesterday's Maximum 20°C
Yesterday's Minimum 0°C approx.
Yesterday's Heating Degree Days 15 approx.
Sunrise6:48 AM CEST
Sunset7:31 PM CEST
Moon Rise7:46 AM CEST
Moon Set9:19 PM CEST
Moon PhaseMoon Phase
New Moon
Raw METARMETAR LKLN 290300Z AUTO 00000KT CAVOK 04/01 Q1023


Monday
. High: 60° F.
Tuesday
. High: 68° F.
Wednesday
. High: 80° F.
Thursday
. High: 57° F.
Friday
. High: 60° F.
Saturday
. High: 62° F.
Sunday
. High: 69° F.
Monday
. High: 59° F.

Units: English | Metric

Find the Weather for any City, State or Zipcode, or Country:

U.S. State List | Severe Weather | Tropical Storms | Ski Conditions
United States | Canada | Central America | South America | Asia | Europe | Australia | Africa | Islands

Weather Underground

© Copyright 2017
The Weather Company, LLC